Time;durP1;ratioP1;P1;durP2;ratioP2;P2;SDS_P1;SDS_P2;PMS_P1;PMS_P2;Temp;Humidity;BMP_temperature;BMP_pressure;BME280_temperature;BME280_humidity;BME280_pressure;Samples;Min_cycle;Max_cycle;Signal;HPM_P1;HPM_P2
2022/03/11 00:02:21;;;;;;;12.02;3.25;;;;;;;17.28;38.86;100136.09;5033584;28;20427;-83
2022/03/11 00:04:47;;;;;;;12.93;3.13;;;;;;;17.26;38.75;100123.81;5033665;28;20037;-83
2022/03/11 00:07:14;;;;;;;18.33;4.50;;;;;;;17.41;38.69;100122.84;5034980;28;20029;-83
2022/03/11 00:09:39;;;;;;;10.75;2.78;;;;;;;17.16;39.14;100123.31;5033507;28;20514;-83
2022/03/11 00:12:06;;;;;;;10.30;2.33;;;;;;;17.28;38.95;100105.72;5033642;28;20026;-84
2022/03/11 00:14:32;;;;;;;16.20;3.50;;;;;;;17.31;38.65;100099.47;5033649;28;20029;-83
2022/03/11 00:16:57;;;;;;;15.75;3.95;;;;;;;17.26;38.80;100110.03;5034766;28;20064;-83
2022/03/11 00:19:23;;;;;;;13.23;3.38;;;;;;;17.34;38.71;100103.44;5034535;28;20041;-85
2022/03/11 00:21:49;;;;;;;14.80;3.70;;;;;;;17.12;39.04;100103.13;5033549;28;20468;-83
2022/03/11 00:24:14;;;;;;;14.77;3.03;;;;;;;17.35;38.85;100105.00;5033354;28;20037;-84
2022/03/11 00:26:40;;;;;;;20.15;3.47;;;;;;;17.23;39.23;100111.56;5033335;28;20503;-85
2022/03/11 00:29:06;;;;;;;16.60;3.67;;;;;;;17.37;38.92;100103.47;5033398;28;20435;-83
2022/03/11 00:31:31;;;;;;;14.70;4.50;;;;;;;17.52;38.62;100095.38;5034401;28;20032;-85
2022/03/11 00:33:58;;;;;;;18.70;3.90;;;;;;;17.36;39.31;100082.53;5033146;28;20400;-83
2022/03/11 00:36:24;;;;;;;17.20;3.65;;;;;;;16.87;40.24;100077.13;5033314;28;20025;-84
2022/03/11 00:38:50;;;;;;;13.35;3.97;;;;;;;17.00;40.08;100078.50;5033136;28;20036;-81
2022/03/11 00:41:16;;;;;;;14.18;3.47;;;;;;;17.12;39.60;100070.00;5033181;28;20022;-82
2022/03/11 00:43:43;;;;;;;13.40;4.50;;;;;;;17.27;39.30;100072.97;5032004;28;20407;-82
2022/03/11 00:46:09;;;;;;;14.63;3.20;;;;;;;17.30;39.32;100070.22;5034205;28;20573;-82
2022/03/11 00:48:34;;;;;;;21.67;4.40;;;;;;;17.29;39.23;100060.34;5049636;28;20033;-81
2022/03/11 00:51:00;;;;;;;15.65;3.70;;;;;;;17.07;39.77;100059.28;5032900;28;20052;-82
2022/03/11 00:53:27;;;;;;;15.75;3.80;;;;;;;17.24;39.54;100059.91;5032798;28;20080;-81
2022/03/11 00:55:56;;;;;;;14.25;4.03;;;;;;;17.29;39.29;100051.28;5034265;28;20052;-82
2022/03/11 00:58:22;;;;;;;20.70;3.78;;;;;;;17.32;39.43;100045.81;5036048;28;20021;-83
2022/03/11 01:00:48;;;;;;;15.60;4.03;;;;;;;17.25;39.30;100050.47;5036009;28;20043;-82
2022/03/11 01:03:13;;;;;;;14.15;3.22;;;;;;;17.22;39.43;100046.47;5036007;28;20044;-81
2022/03/11 01:05:39;;;;;;;21.05;3.80;;;;;;;17.28;39.43;100035.88;5035991;28;20025;-81
2022/03/11 01:08:05;;;;;;;20.35;3.88;;;;;;;17.04;39.92;100035.19;5036060;28;20020;-83
2022/03/11 01:10:31;;;;;;;13.32;3.75;;;;;;;16.97;40.14;100037.84;5035815;28;20047;-82
2022/03/11 01:12:57;;;;;;;19.40;4.15;;;;;;;17.11;39.87;100029.78;5035990;28;20075;-81
2022/03/11 01:15:23;;;;;;;17.67;4.28;;;;;;;16.90;40.24;100024.75;5053558;28;20484;-82
2022/03/11 01:17:48;;;;;;;9.80;2.90;;;;;;;17.07;40.28;100020.63;5035712;28;20021;-81
2022/03/11 01:20:15;;;;;;;15.40;4.00;;;;;;;16.71;40.65;100010.28;5035586;28;20090;-83
2022/03/11 01:22:40;;;;;;;22.85;4.97;;;;;;;16.85;40.48;100011.28;5035337;28;20040;-82
2022/03/11 01:25:07;;;;;;;14.15;4.35;;;;;;;16.91;40.45;100025.53;5035649;28;20025;-82
2022/03/11 01:27:33;;;;;;;11.45;2.75;;;;;;;16.92;40.21;100010.56;5035704;28;20475;-81
2022/03/11 01:29:59;;;;;;;15.18;3.17;;;;;;;16.89;40.46;100000.28;5035378;28;20025;-82
2022/03/11 01:32:25;;;;;;;13.75;4.20;;;;;;;17.04;40.04;99999.31;5035486;28;20025;-83
2022/03/11 01:34:50;;;;;;;16.08;3.20;;;;;;;16.81;40.39;99993.09;5035356;28;20024;-81
2022/03/11 01:37:16;;;;;;;19.73;3.72;;;;;;;17.15;39.90;99991.97;5035447;28;20074;-82
2022/03/11 01:39:42;;;;;;;22.27;4.35;;;;;;;17.11;40.02;99991.13;5035258;28;20036;-82
2022/03/11 01:42:07;;;;;;;18.15;4.50;;;;;;;17.21;39.75;99984.13;5053376;28;20025;-81
2022/03/11 01:44:33;;;;;;;15.60;2.95;;;;;;;16.87;40.42;99977.81;5035197;28;20028;-83
2022/03/11 01:46:59;;;;;;;23.13;5.15;;;;;;;17.04;39.87;99976.44;5035404;28;20025;-83
2022/03/11 01:49:25;;;;;;;18.80;4.43;;;;;;;17.24;39.67;99974.34;5035297;28;20025;-81
2022/03/11 01:51:51;;;;;;;19.27;5.35;;;;;;;17.43;39.19;99966.66;5053286;28;20056;-83
2022/03/11 01:54:17;;;;;;;23.20;4.97;;;;;;;17.12;39.94;99965.09;5035179;28;20056;-82
2022/03/11 01:56:43;;;;;;;10.18;3.20;;;;;;;17.10;40.06;99953.66;5052489;28;20495;-81
2022/03/11 01:59:11;;;;;;;15.63;3.92;;;;;;;16.97;40.17;99951.50;5035262;28;20029;-83
2022/03/11 02:01:37;;;;;;;15.75;4.65;;;;;;;17.15;39.77;99952.50;5053059;28;20024;-81
2022/03/11 02:04:03;;;;;;;25.58;4.60;;;;;;;17.08;40.02;99953.25;5034880;28;20064;-81
2022/03/11 02:06:29;;;;;;;14.05;4.72;;;;;;;17.06;40.22;99943.72;5035082;28;20052;-82
2022/03/11 02:08:56;;;;;;;14.98;4.38;;;;;;;16.89;40.39;99940.38;5034727;28;20036;-81
2022/03/11 02:11:22;;;;;;;17.15;4.80;;;;;;;17.31;39.49;99944.03;5052808;28;20058;-84
2022/03/11 02:13:56;;;;;;;20.95;4.05;;;;;;;17.03;39.92;99922.41;5034724;28;20024;-82
2022/03/11 02:16:23;;;;;;;17.88;4.10;;;;;;;16.93;40.08;99937.69;5052596;28;20548;-84
2022/03/11 02:18:50;;;;;;;15.80;3.63;;;;;;;17.03;39.89;99934.25;5052468;28;20463;-81
2022/03/11 02:21:17;;;;;;;13.18;4.50;;;;;;;17.20;39.41;99921.81;5052638;28;20029;-82
2022/03/11 02:23:44;;;;;;;15.35;4.03;;;;;;;17.08;39.77;99935.91;5052596;28;20035;-82
2022/03/11 02:26:11;;;;;;;13.93;4.95;;;;;;;16.98;39.92;99920.78;5034792;28;20123;-81
2022/03/11 02:28:36;;;;;;;15.88;4.25;;;;;;;17.11;39.60;99922.13;5034696;28;20036;-81
2022/03/11 02:31:02;;;;;;;15.63;3.63;;;;;;;17.27;39.08;99918.34;5034681;28;20475;-82
2022/03/11 02:33:28;;;;;;;23.38;5.63;;;;;;;17.16;39.53;99916.28;5052535;28;20471;-81
2022/03/11 02:35:54;;;;;;;15.80;3.22;;;;;;;17.23;39.08;99896.25;5052362;28;20041;-81
2022/03/11 02:38:20;;;;;;;13.23;3.63;;;;;;;17.08;39.35;99898.03;5034536;28;20067;-82
2022/03/11 02:40:45;;;;;;;13.57;4.03;;;;;;;17.24;39.45;99902.56;5052426;28;20487;-81
2022/03/11 02:43:12;;;;;;;16.55;3.40;;;;;;;17.26;39.19;99897.44;5034696;28;20029;-83
2022/03/11 02:45:37;;;;;;;13.20;4.32;;;;;;;17.13;39.48;99891.38;5052429;28;20029;-82
2022/03/11 02:48:03;;;;;;;25.08;4.30;;;;;;;17.30;39.24;99887.22;5034582;28;20036;-82
2022/03/11 02:50:28;;;;;;;14.43;3.72;;;;;;;17.37;39.12;99885.31;5034435;28;20029;-81
2022/03/11 02:52:54;;;;;;;19.80;4.88;;;;;;;17.56;39.05;99884.34;5052279;28;20158;-82
2022/03/11 02:55:19;;;;;;;16.25;4.10;;;;;;;17.44;39.25;99865.25;5034353;28;20128;-82
2022/03/11 02:57:45;;;;;;;15.68;4.05;;;;;;;17.45;39.26;99858.56;5034319;28;20052;-84
2022/03/11 03:00:11;;;;;;;16.58;3.95;;;;;;;17.42;39.62;99857.38;5034477;28;20029;-82
2022/03/11 03:02:36;;;;;;;20.88;3.88;;;;;;;17.46;39.43;99846.38;5051972;28;20038;-82
2022/03/11 03:05:02;;;;;;;19.75;4.35;;;;;;;17.53;39.11;99835.34;5034540;28;20021;-83
2022/03/11 03:07:28;;;;;;;13.82;4.18;;;;;;;17.33;39.47;99823.75;5035824;28;20025;-82
2022/03/11 03:09:53;;;;;;;14.70;4.25;;;;;;;17.38;39.68;99817.06;5038226;28;20116;-83
2022/03/11 03:12:19;;;;;;;20.92;5.45;;;;;;;17.38;39.86;99806.03;5038287;28;20032;-82
2022/03/11 03:14:45;;;;;;;15.07;3.90;;;;;;;17.47;39.64;99788.00;5038040;28;20119;-83
2022/03/11 03:17:10;;;;;;;22.42;3.95;;;;;;;17.25;40.30;99779.91;5038049;28;20479;-83
2022/03/11 03:19:36;;;;;;;15.13;4.75;;;;;;;17.22;40.37;99780.66;5037896;28;20383;-83
2022/03/11 03:22:04;;;;;;;17.10;4.82;;;;;;;17.07;40.59;99769.47;5037951;28;20025;-82
2022/03/11 03:24:29;;;;;;;18.80;4.20;;;;;;;16.92;40.89;99781.56;5037868;28;20487;-84
2022/03/11 03:26:56;;;;;;;12.70;3.92;;;;;;;17.09;40.50;99772.66;5038006;28;20021;-82
2022/03/11 03:29:23;;;;;;;17.80;5.25;;;;;;;17.12;40.53;99779.38;5037808;28;20082;-82
2022/03/11 03:31:49;;;;;;;17.60;4.68;;;;;;;17.09;40.35;99772.66;5037856;28;20020;-82
2022/03/11 03:34:14;;;;;;;18.17;3.85;;;;;;;17.05;40.29;99777.34;5055483;28;20021;-82
2022/03/11 03:36:40;;;;;;;15.35;4.13;;;;;;;17.16;40.37;99769.19;5055726;28;20078;-82
2022/03/11 03:39:05;;;;;;;16.35;3.47;;;;;;;17.17;40.38;99768.00;5037565;28;20497;-82
2022/03/11 03:41:31;;;;;;;19.50;4.82;;;;;;;17.17;40.38;99759.72;5055516;28;20056;-83
2022/03/11 03:43:56;;;;;;;13.48;4.15;;;;;;;17.13;40.60;99756.91;5054210;28;20103;-82
2022/03/11 03:46:22;;;;;;;19.65;4.25;;;;;;;17.07;40.36;99752.91;5037586;28;20040;-82
2022/03/11 03:48:48;;;;;;;17.05;4.20;;;;;;;17.24;40.35;99753.47;5037435;28;20056;-82
2022/03/11 03:51:14;;;;;;;21.67;3.92;;;;;;;17.23;40.44;99732.53;5037568;28;20071;-83
2022/03/11 03:53:39;;;;;;;18.60;5.00;;;;;;;17.24;40.33;99725.88;5055288;28;20037;-81
2022/03/11 03:56:05;;;;;;;16.00;5.32;;;;;;;17.17;40.75;99721.09;5037205;28;20479;-82
2022/03/11 03:58:31;;;;;;;21.73;5.57;;;;;;;17.36;40.48;99728.31;5037355;28;20120;-82
2022/03/11 04:00:57;;;;;;;20.17;4.75;;;;;;;17.25;40.74;99727.44;5055060;28;20032;-83
2022/03/11 04:03:22;;;;;;;24.88;4.88;;;;;;;17.48;40.43;99728.81;5037408;28;20028;-82
2022/03/11 04:05:48;;;;;;;25.95;5.47;;;;;;;17.38;40.79;99724.00;5037201;28;20383;-84
2022/03/11 04:08:13;;;;;;;17.85;4.85;;;;;;;17.33;40.72;99715.28;5037368;28;20494;-82
2022/03/11 04:10:39;;;;;;;22.25;5.38;;;;;;;17.50;40.71;99722.09;5037060;28;20086;-82
2022/03/11 04:13:05;;;;;;;20.75;5.50;;;;;;;17.35;41.04;99713.72;5037192;28;20029;-82
2022/03/11 04:15:31;;;;;;;22.05;5.97;;;;;;;17.36;41.35;99703.47;5036924;28;20036;-82
2022/03/11 04:17:56;;;;;;;22.95;4.75;;;;;;;17.15;41.69;99704.91;5054733;28;20024;-81
2022/03/11 04:20:22;;;;;;;20.98;4.55;;;;;;;17.30;41.30;99705.00;5036820;28;20025;-84
2022/03/11 04:22:48;;;;;;;14.82;4.85;;;;;;;17.35;41.26;99701.88;5036910;28;20107;-82
2022/03/11 04:25:15;;;;;;;18.75;5.28;;;;;;;17.31;41.58;99701.88;5036835;28;20032;-82
2022/03/11 04:27:41;;;;;;;22.35;6.10;;;;;;;17.32;41.51;99697.16;5054698;28;20025;-82
2022/03/11 04:30:08;;;;;;;17.13;4.88;;;;;;;17.42;41.41;99686.16;5036852;28;20052;-84
2022/03/11 04:32:34;;;;;;;15.15;4.25;;;;;;;17.50;41.14;99684.22;5036750;28;20119;-83
2022/03/11 04:34:59;;;;;;;15.07;4.90;;;;;;;17.42;41.36;99674.31;5053074;28;20569;-82
2022/03/11 04:37:25;;;;;;;16.70;4.40;;;;;;;17.54;41.06;99670.47;5036595;28;20029;-82
2022/03/11 04:39:50;;;;;;;16.55;4.63;;;;;;;17.49;41.33;99666.09;5036551;28;20040;-83
2022/03/11 04:42:16;;;;;;;26.77;6.40;;;;;;;17.51;41.70;99662.94;5036637;28;20032;-85
2022/03/11 04:44:42;;;;;;;22.52;5.72;;;;;;;17.53;41.61;99653.06;5036433;28;20487;-81
2022/03/11 04:47:07;;;;;;;14.48;4.25;;;;;;;17.59;41.61;99661.78;5054310;28;20078;-82
2022/03/11 04:49:33;;;;;;;22.42;4.95;;;;;;;17.42;42.14;99657.75;5036366;28;20032;-82
2022/03/11 04:51:58;;;;;;;20.17;4.78;;;;;;;17.69;41.42;99648.06;5036311;28;20439;-82
2022/03/11 04:54:24;;;;;;;19.40;4.47;;;;;;;17.60;41.84;99644.81;5042388;28;20078;-83
2022/03/11 04:56:50;;;;;;;26.95;6.32;;;;;;;17.73;41.38;99642.56;5055773;28;20060;-82
2022/03/11 04:59:15;;;;;;;15.98;5.25;;;;;;;17.75;41.51;99642.97;5055984;28;20422;-82
2022/03/11 05:01:41;;;;;;;26.42;6.55;;;;;;;17.82;41.62;99634.69;5056049;28;20435;-82
2022/03/11 05:04:06;;;;;;;25.27;6.18;;;;;;;17.60;42.01;99619.97;5056129;28;20368;-82
2022/03/11 05:06:32;;;;;;;28.95;6.30;;;;;;;17.78;41.71;99622.06;5073946;28;20078;-81
2022/03/11 05:08:57;;;;;;;13.20;5.18;;;;;;;17.84;41.68;99620.53;5073693;28;20028;-81
2022/03/11 05:11:23;;;;;;;24.77;6.55;;;;;;;17.77;42.02;99620.50;5056054;28;20036;-83
2022/03/11 05:13:48;;;;;;;19.77;6.30;;;;;;;17.75;42.01;99612.56;5073658;28;20032;-82
2022/03/11 05:16:14;;;;;;;19.65;6.30;;;;;;;17.88;41.71;99605.53;5055621;28;20444;-82
2022/03/11 05:18:40;;;;;;;21.15;5.75;;;;;;;17.54;42.58;99596.69;5073218;28;20039;-84
2022/03/11 05:21:06;;;;;;;17.65;6.82;;;;;;;17.42;42.65;99600.56;5055049;28;20036;-83
2022/03/11 05:23:32;;;;;;;23.20;7.07;;;;;;;17.70;42.24;99594.41;5073159;28;20032;-82
2022/03/11 05:25:57;;;;;;;18.85;5.38;;;;;;;17.72;42.27;99583.75;5055292;28;20071;-81
2022/03/11 05:28:23;;;;;;;19.00;5.88;;;;;;;17.66;42.52;99579.75;5055592;28;20035;-83
2022/03/11 05:30:48;;;;;;;20.30;6.22;;;;;;;17.66;42.51;99576.19;5054991;28;20112;-81
2022/03/11 05:33:14;;;;;;;16.30;5.57;;;;;;;17.60;42.79;99570.25;5073424;28;20078;-83
2022/03/11 05:35:41;;;;;;;22.27;5.57;;;;;;;17.68;42.64;99566.38;5055019;28;20036;-83
2022/03/11 05:38:06;;;;;;;14.55;6.18;;;;;;;17.61;42.80;99560.81;5055436;28;20035;-83
2022/03/11 05:40:32;;;;;;;20.80;5.90;;;;;;;17.60;42.95;99555.66;5055166;28;20032;-83
2022/03/11 05:42:57;;;;;;;14.55;6.22;;;;;;;17.41;43.11;99549.28;5055174;28;20031;-84
2022/03/11 05:45:23;;;;;;;19.20;5.78;;;;;;;17.30;43.53;99539.34;5055213;28;20039;-84
2022/03/11 05:47:49;;;;;;;14.90;6.47;;;;;;;17.59;42.81;99535.53;5055229;28;20094;-84
2022/03/11 05:50:14;;;;;;;18.60;5.60;;;;;;;17.80;42.23;99534.06;5072692;28;20111;-83
2022/03/11 05:52:42;;;;;;;13.55;5.90;;;;;;;17.72;42.48;99527.72;5072685;28;20098;-84
2022/03/11 05:55:09;;;;;;;16.77;6.43;;;;;;;17.71;42.60;99515.88;5072810;28;20356;-86
2022/03/11 05:57:34;;;;;;;21.02;6.15;;;;;;;17.71;42.53;99518.66;5072719;28;20494;-84
2022/03/11 06:00:01;;;;;;;18.13;6.65;;;;;;;17.72;42.54;99520.22;5054892;28;20036;-84
2022/03/11 06:02:27;;;;;;;17.90;5.95;;;;;;;17.73;42.54;99512.72;5072952;28;20035;-84
2022/03/11 06:04:52;;;;;;;19.63;6.22;;;;;;;17.71;42.61;99520.63;5072720;28;20375;-83
2022/03/11 06:07:19;;;;;;;19.83;6.88;;;;;;;17.68;42.91;99513.06;5054742;28;20371;-84
2022/03/11 06:09:45;;;;;;;22.38;7.07;;;;;;;17.96;42.13;99512.38;5072828;28;20377;-84
2022/03/11 06:12:10;;;;;;;17.65;5.47;;;;;;;17.71;42.64;99504.03;5054728;28;20187;-85
2022/03/11 06:14:36;;;;;;;22.52;6.82;;;;;;;17.74;42.81;99494.97;5054477;28;20056;-84
2022/03/11 06:17:02;;;;;;;19.98;5.72;;;;;;;17.61;43.42;99483.47;5054759;28;20479;-83
2022/03/11 06:19:27;;;;;;;17.80;5.75;;;;;;;17.68;42.98;99485.44;5054691;28;20021;-83
2022/03/11 06:21:55;;;;;;;18.05;5.03;;;;;;;17.89;42.39;99474.47;5054777;28;20031;-84
2022/03/11 06:24:20;;;;;;;17.42;5.25;;;;;;;17.95;42.47;99478.44;5054648;28;20115;-84
2022/03/11 06:26:46;;;;;;;21.90;5.43;;;;;;;17.93;42.37;99477.25;5054896;28;20119;-86
2022/03/11 06:29:12;;;;;;;25.35;6.65;;;;;;;17.90;42.33;99476.03;5072955;28;20052;-85
2022/03/11 06:31:38;;;;;;;13.35;4.63;;;;;;;17.73;42.64;99465.75;5054903;28;20070;-85
2022/03/11 06:34:04;;;;;;;17.08;4.60;;;;;;;17.64;42.84;99466.09;5054803;28;20059;-85
2022/03/11 06:36:30;;;;;;;15.07;4.95;;;;;;;18.02;42.02;99469.34;5054738;28;20029;-86
2022/03/11 06:38:56;;;;;;;20.73;4.97;;;;;;;17.98;41.91;99466.56;5054559;28;20032;-84
2022/03/11 06:41:22;;;;;;;20.00;5.30;;;;;;;17.92;42.09;99476.47;5054619;28;20392;-85
2022/03/11 06:43:48;;;;;;;16.63;6.03;;;;;;;17.95;42.17;99464.59;5058289;28;20352;-84
2022/03/11 06:46:14;;;;;;;25.83;6.82;;;;;;;18.08;41.74;99473.31;5056752;28;20023;-85
2022/03/11 06:48:39;;;;;;;26.38;5.95;;;;;;;18.03;41.67;99470.94;5075503;28;20024;-85
2022/03/11 06:51:05;;;;;;;19.17;5.57;;;;;;;18.03;41.35;99474.47;5056394;28;20078;-85
2022/03/11 06:53:32;;;;;;;17.13;5.10;;;;;;;18.13;41.18;99466.59;5058213;28;20107;-84
2022/03/11 06:56:00;;;;;;;13.90;4.43;;;;;;;17.94;41.41;99457.50;5057972;28;20032;-83
2022/03/11 06:58:28;;;;;;;13.57;4.63;;;;;;;18.27;40.97;99467.38;5058166;28;20067;-84
2022/03/11 07:00:54;;;;;;;18.90;6.18;;;;;;;18.23;41.19;99452.00;5076258;28;20025;-84
2022/03/11 07:03:20;;;;;;;17.55;5.50;;;;;;;18.35;41.00;99459.06;5057590;28;20082;-84
2022/03/11 07:05:45;;;;;;;22.30;7.00;;;;;;;18.22;41.60;99462.25;5057771;28;20024;-85
2022/03/11 07:08:12;;;;;;;17.48;4.95;;;;;;;18.17;42.09;99451.59;5057712;28;20060;-84
2022/03/11 07:10:38;;;;;;;22.55;5.70;;;;;;;18.21;42.39;99457.91;5074799;28;20028;-84
2022/03/11 07:13:03;;;;;;;14.45;5.40;;;;;;;18.06;42.97;99445.28;5058129;28;20028;-84
2022/03/11 07:15:30;;;;;;;15.77;5.05;;;;;;;18.21;42.74;99460.69;5057815;28;20032;-84
2022/03/11 07:17:55;;;;;;;19.15;6.28;;;;;;;18.13;43.69;99447.22;5057893;28;20024;-84
2022/03/11 07:20:21;;;;;;;25.23;6.35;;;;;;;18.35;42.77;99440.50;5075295;28;20040;-83
2022/03/11 07:22:48;;;;;;;24.83;6.30;;;;;;;18.14;43.73;99438.56;5075925;28;20036;-84
2022/03/11 07:25:14;;;;;;;17.70;6.32;;;;;;;18.21;43.59;99435.81;5057729;28;20398;-84
2022/03/11 07:27:40;;;;;;;18.85;6.22;;;;;;;18.28;43.44;99424.72;5075507;28;20065;-83
2022/03/11 07:30:06;;;;;;;15.95;4.72;;;;;;;18.32;43.72;99430.25;5057730;28;20119;-84
2022/03/11 07:32:32;;;;;;;29.45;5.68;;;;;;;18.36;43.83;99421.94;5057664;28;20025;-84
2022/03/11 07:34:57;;;;;;;25.23;5.93;;;;;;;18.17;44.36;99420.41;5057546;28;20076;-85
2022/03/11 07:37:23;;;;;;;18.92;5.07;;;;;;;18.00;44.98;99419.22;5057554;28;20646;-84
2022/03/11 07:39:49;;;;;;;18.30;6.45;;;;;;;18.39;43.85;99405.34;5057660;28;20119;-83
2022/03/11 07:42:15;;;;;;;17.50;5.00;;;;;;;18.21;44.40;99408.16;5057631;28;20021;-85
2022/03/11 07:44:42;;;;;;;16.17;4.65;;;;;;;18.35;44.16;99404.56;5075491;28;20107;-82
2022/03/11 07:47:08;;;;;;;24.25;5.90;;;;;;;18.25;44.50;99395.09;5057636;28;20062;-84
2022/03/11 07:49:34;;;;;;;20.85;5.82;;;;;;;18.10;45.29;99387.22;5074331;28;20032;-84
2022/03/11 07:52:02;;;;;;;23.00;5.00;;;;;;;18.46;44.17;99387.97;5075766;28;20021;-85
2022/03/11 07:54:28;;;;;;;19.35;5.82;;;;;;;18.19;44.65;99384.84;5058092;28;20107;-92
2022/03/11 07:56:54;;;;;;;26.92;7.28;;;;;;;18.17;44.92;99384.47;5056978;28;20044;-82
2022/03/11 07:59:19;;;;;;;15.20;5.18;;;;;;;18.42;44.45;99385.19;5083163;28;20024;-82
2022/03/11 08:01:46;;;;;;;20.20;5.93;;;;;;;18.49;44.24;99374.13;5057047;28;20028;-87
2022/03/11 08:04:13;;;;;;;18.73;5.68;;;;;;;18.49;44.10;99373.31;5075705;28;20047;-83
2022/03/11 08:06:40;;;;;;;25.55;6.40;;;;;;;18.61;44.02;99372.13;5075406;28;20028;-81
2022/03/11 08:09:06;;;;;;;25.10;7.72;;;;;;;18.51;44.28;99363.47;5075176;28;20405;-85
2022/03/11 08:11:31;;;;;;;25.25;6.40;;;;;;;18.49;44.11;99359.50;5057035;28;20119;-84
2022/03/11 08:13:57;;;;;;;23.02;5.68;;;;;;;18.63;43.70;99344.84;5057298;28;20083;-85
2022/03/11 08:16:22;;;;;;;21.98;6.18;;;;;;;18.32;44.68;99352.03;5056927;28;20029;-84
2022/03/11 08:18:48;;;;;;;25.17;5.88;;;;;;;18.30;44.93;99344.16;5074883;28;20032;-84
2022/03/11 08:21:16;;;;;;;19.98;6.03;;;;;;;18.39;44.35;99346.50;5074894;28;20395;-83
2022/03/11 08:23:45;;;;;;;21.60;5.60;;;;;;;18.25;44.75;99339.81;5056767;28;20082;-83
2022/03/11 08:26:11;;;;;;;20.83;5.72;;;;;;;18.49;44.28;99348.44;5056800;28;20393;-84
2022/03/11 08:28:38;;;;;;;18.98;6.00;;;;;;;18.53;44.17;99344.47;5055797;28;20097;-84
2022/03/11 08:31:04;;;;;;;25.88;6.80;;;;;;;18.58;44.17;99343.25;5056667;28;20035;-87
2022/03/11 08:33:30;;;;;;;27.13;6.20;;;;;;;18.64;43.76;99349.19;5060011;28;20029;-85
2022/03/11 08:35:57;;;;;;;26.83;7.88;;;;;;;18.57;44.02;99344.47;5030933;28;20037;-82
2022/03/11 08:38:22;;;;;;;18.90;7.60;;;;;;;18.50;44.46;99345.25;5057918;28;20372;-86
2022/03/11 08:40:48;;;;;;;18.95;6.70;;;;;;;18.49;44.14;99331.84;5059760;28;20032;-84
2022/03/11 08:43:14;;;;;;;17.67;5.95;;;;;;;18.52;44.14;99344.88;5041266;28;20028;-85
2022/03/11 08:45:40;;;;;;;21.05;5.43;;;;;;;18.32;44.72;99332.69;5040818;28;20622;-85
2022/03/11 08:48:06;;;;;;;17.50;4.75;;;;;;;18.48;44.18;99338.56;5060698;28;20036;-83
2022/03/11 08:50:33;;;;;;;19.23;6.55;;;;;;;18.43;44.32;99333.44;5041204;28;20028;-83
2022/03/11 08:52:59;;;;;;;15.48;5.90;;;;;;;18.24;44.78;99332.72;5040268;28;20013;-83
2022/03/11 08:55:25;;;;;;;16.13;6.35;;;;;;;18.21;44.86;99324.41;5071455;28;20024;-82
2022/03/11 08:57:52;;;;;;;19.50;5.57;;;;;;;18.38;44.27;99314.50;5055923;28;20098;-86
2022/03/11 09:00:20;;;;;;;18.38;6.57;;;;;;;18.46;44.35;99313.28;5056097;28;20024;-86
2022/03/11 09:02:47;;;;;;;22.67;6.72;;;;;;;18.45;44.54;99320.03;5060838;28;20027;-83
2022/03/11 09:05:17;;;;;;;17.23;6.05;;;;;;;18.54;44.25;99320.38;5092012;28;20539;-85
2022/03/11 09:07:43;;;;;;;15.25;4.95;;;;;;;18.26;44.56;99313.72;5050047;28;20024;-86
2022/03/11 09:10:11;;;;;;;17.95;6.28;;;;;;;17.95;45.30;99304.31;5055586;28;20021;-86
2022/03/11 09:12:37;;;;;;;12.90;4.70;;;;;;;18.39;44.29;99313.31;5073445;28;20070;-84
2022/03/11 09:15:04;;;;;;;21.27;6.88;;;;;;;18.43;44.10;99311.31;5050801;28;20089;-84
2022/03/11 09:17:30;;;;;;;16.17;4.72;;;;;;;18.45;44.00;99295.13;5039836;28;20098;-83
2022/03/11 09:19:56;;;;;;;24.83;6.80;;;;;;;18.30;44.47;99288.84;5039935;28;20024;-85
2022/03/11 09:22:22;;;;;;;22.60;7.03;;;;;;;18.50;44.17;99295.47;5040100;28;20079;-87
2022/03/11 09:24:48;;;;;;;19.45;6.25;;;;;;;18.21;44.99;99296.75;5031176;28;20036;-88
2022/03/11 09:27:13;;;;;;;23.83;7.25;;;;;;;18.10;45.18;99287.72;5041995;28;20428;-85
2022/03/11 09:29:40;;;;;;;26.45;8.27;;;;;;;18.44;44.55;99274.16;5037681;28;20024;-83
2022/03/11 09:32:07;;;;;;;24.52;5.95;;;;;;;18.00;45.46;99281.81;5057537;28;20035;-85
2022/03/11 09:34:33;;;;;;;22.38;6.20;;;;;;;18.24;44.93;99277.41;5068499;28;20025;-87
2022/03/11 09:36:59;;;;;;;28.10;7.20;;;;;;;18.11;45.40;99273.50;5054976;28;20074;-86
2022/03/11 09:39:25;;;;;;;19.55;4.80;;;;;;;17.92;45.51;99271.97;5073208;28;20032;-87
2022/03/11 09:41:51;;;;;;;22.35;6.10;;;;;;;17.83;45.79;99256.97;5055787;28;20028;-87
2022/03/11 09:44:20;;;;;;;18.63;6.00;;;;;;;18.08;44.93;99268.78;5073632;28;20032;-85
2022/03/11 09:46:47;;;;;;;20.20;5.97;;;;;;;18.14;45.05;99267.19;5073180;28;20020;-85
2022/03/11 09:49:14;;;;;;;21.50;6.20;;;;;;;18.04;45.04;99259.69;5055486;28;20120;-85
2022/03/11 09:51:41;;;;;;;23.77;6.28;;;;;;;18.02;45.19;99253.78;5073418;28;20052;-86
2022/03/11 09:54:08;;;;;;;20.77;6.30;;;;;;;18.21;44.41;99233.19;5073507;28;20383;-84
2022/03/11 09:56:39;;;;;;;19.80;6.30;;;;;;;17.79;45.41;99240.41;5072856;28;20139;-85
2022/03/11 09:59:06;;;;;;;21.80;6.32;;;;;;;18.00;45.12;99236.81;5055329;28;20028;-86
2022/03/11 10:01:32;;;;;;;23.30;5.72;;;;;;;18.21;44.59;99222.94;5073005;28;20035;-84
2022/03/11 10:03:58;;;;;;;19.25;5.97;;;;;;;18.09;44.73;99217.06;5055160;28;20020;-87
2022/03/11 10:06:54;;;;;;;23.95;7.07;;;;;;;17.94;44.89;99208.81;5054997;28;20027;-85
2022/03/11 10:09:19;;;;;;;25.17;6.85;;;;;;;18.10;44.70;99200.06;5042080;28;20033;-86
2022/03/11 10:11:46;;;;;;;27.67;6.15;;;;;;;18.11;44.58;99196.09;5052753;28;20468;-86
2022/03/11 10:14:12;;;;;;;17.85;5.20;;;;;;;18.11;44.73;99179.53;5051278;28;20017;-84
2022/03/11 10:16:40;;;;;;;28.05;7.75;;;;;;;18.19;44.73;99178.28;5052309;28;20028;-86
2022/03/11 10:19:16;;;;;;;31.33;6.65;;;;;;;18.22;44.72;99176.72;5069757;28;20035;-85
2022/03/11 10:21:45;;;;;;;29.98;5.80;;;;;;;17.79;45.69;99162.28;5054721;28;20021;-85
2022/03/11 10:24:16;;;;;;;20.95;6.45;;;;;;;17.88;45.96;99162.63;5054680;28;20117;-85
2022/03/11 10:26:47;;;;;;;25.17;6.65;;;;;;;17.59;46.42;99154.41;5054679;28;20028;-85
2022/03/11 10:29:29;;;;;;;19.08;6.22;;;;;;;17.91;46.20;99156.28;5054215;28;20112;-85
2022/03/11 10:31:56;;;;;;;34.60;7.55;;;;;;;18.12;45.71;99153.44;5054932;28;20024;-85
2022/03/11 10:34:32;;;;;;;23.10;7.38;;;;;;;18.30;45.39;99167.19;5054412;28;20479;-86
2022/03/11 10:37:12;;;;;;;25.63;6.70;;;;;;;18.35;45.31;99165.97;5075792;28;20047;-86
2022/03/11 10:39:42;;;;;;;29.85;7.28;;;;;;;18.24;45.52;99161.31;5092834;28;20024;-84
2022/03/11 10:42:17;;;;;;;32.47;7.25;;;;;;;18.26;45.25;99156.16;5092032;28;20390;-85
2022/03/11 10:45:03;;;;;;;30.85;7.25;;;;;;;18.49;44.85;99158.38;5053969;28;20033;-88
2022/03/11 10:47:32;;;;;;;24.08;6.78;;;;;;;18.49;44.90;99152.06;5045066;28;20137;-85
2022/03/11 10:50:09;;;;;;;28.25;8.48;;;;;;;18.15;45.54;99151.88;5066391;28;20025;-86
2022/03/11 10:52:40;;;;;;;31.85;7.38;;;;;;;18.30;45.24;99140.34;5060410;28;20013;-86
2022/03/11 10:55:20;;;;;;;29.02;8.27;;;;;;;18.51;44.62;99149.69;5062199;28;20488;-86
2022/03/11 10:57:47;;;;;;;30.83;7.18;;;;;;;18.75;43.83;99140.47;5047590;28;20051;-85
2022/03/11 11:00:17;;;;;;;31.27;8.32;;;;;;;18.64;44.22;99127.88;5057200;28;20057;-84
2022/03/11 11:02:44;;;;;;;23.80;6.93;;;;;;;18.55;44.37;99131.88;5043890;28;20399;-85
2022/03/11 11:05:11;;;;;;;29.83;7.47;;;;;;;18.50;44.70;99121.25;5053641;28;20056;-88
2022/03/11 11:07:37;;;;;;;28.73;6.47;;;;;;;18.62;44.26;99119.19;5047066;28;20540;-82
2022/03/11 11:10:03;;;;;;;24.92;7.25;;;;;;;18.48;44.67;99111.78;5052143;28;20099;-86
2022/03/11 11:12:28;;;;;;;20.75;5.57;;;;;;;18.20;45.63;99091.41;5057128;28;20021;-85
2022/03/11 11:14:54;;;;;;;32.65;7.15;;;;;;;18.20;45.77;99101.69;5060144;28;20036;-88
2022/03/11 11:17:21;;;;;;;23.83;7.22;;;;;;;18.23;45.67;99089.84;5035520;28;20040;-85
2022/03/11 11:19:47;;;;;;;33.30;8.80;;;;;;;18.22;45.53;99085.50;5075599;28;20063;-84
2022/03/11 11:22:13;;;;;;;31.13;6.82;;;;;;;18.29;45.77;99085.44;5059890;28;20167;-85